Grand Junction, CO (81504)

9:20 AM MDT on September 22, 2014 (GMT -0600)
Meadowvale | Change Station
CLOSE
Current Station
Personal Weather Station
Location: Grand Junction, CO
Elevation: 4642 ft
Nearby Weather Stations

Elev 4642 ft 39.07 °N, 108.48 °W | Updated 18 seconds ago

Partly Cloudy
Partly Cloudy
66.4 °F
Feels Like 66.4 °F
N
2.2
Wind Variable Wind from NNW
Gusts 5.4 mph

Today
High -- | Low -- °F
--% Chance of Precip.
Yesterday
High -- | Low -- °F
Precip. -- in
7:01 AM 7:10 PM
Waning Crescent, 2% visible
Pressure 30.09 in
Visibility 10.0 miles
Clouds Few 4100 ft
Overcast 5500 ft
Dew Point 61 °F
Humidity 83%
Rainfall 0.00 in
Snow Depth 187 in , 0 in , 0 in
UV 1 out of 12
Pollen 4.70 out of 12
Air Quality Not available.
Flu Activity Not available.
METAR KGJT 221453Z 00000KT 10SM VCTS FEW041 OVC055 18/14 A3023 RMK AO2 LTG DSNT SW TSE35 SLP189 TS W-NW OCNL LTGIC 60000 T01780139 53009

More Conditions Fewer Conditions

Pressure 30.09 in
Visibility 10.0 miles
Clouds Few 4100 ft
Overcast 5500 ft
Dew Point 61 °F
Humidity 83%
Rainfall 0.00 in
Snow Depth 187 in , 0 in , 0 in
UV 1 out of 12
Pollen 4.70 out of 12
Air Quality Not available.
Flu Activity Not available.
METAR KGJT 221453Z 00000KT 10SM VCTS FEW041 OVC055 18/14 A3023 RMK AO2 LTG DSNT SW TSE35 SLP189 TS W-NW OCNL LTGIC 60000 T01780139 53009

More Conditions Fewer Conditions

10-Day Weather Forecast

Almanac

Astronomy

Sep. 22, 2014 Rise Set
Actual Time 7:01 AM MDT 7:10 PM MDT
Civil Twilight 6:35 AM MDT 7:37 PM MDT
Nautical Twilight 6:03 AM MDT 8:08 PM MDT
Astronomical Twilight 5:32 AM MDT 8:40 PM MDT
Moon 5:33 AM MDT 6:19 PM MDT
Length of Visible Light 13h 02m
Length of Day
12h 09m
Tomorrow will be 2m 31s shorter.
Waning Crescent, 2% of the Moon is Illuminated
Today
Waning Crescent
Sep 24
New
Oct 1
First Quarter
Oct 8
Full
Oct 15
Last Quarter

Today's Extremes

State Highs State Lows

Community

WunderPhotos

Upload Photos

1,755,465 photos uploaded!

Nearby

Snow Depth

Station Depth Elevation
Independence Pass 187 in 10600 ft
Lost Dog 0 in 9320 ft
Copper Mountain 0 in 10500 ft
Porphyry Creek 0 in 10760 ft
Ute Creek 0 in 10650 ft

Earthquake Activity

City Distance Mag. Time & Date
No recent earthquake activity has been reported nearby.
Minimum magnitude displayed is 2.5.

Coastal Water Temperatures

Place Temperature
No Stations Reporting

Nearby Weather Stations